sensor_id;sensor_type;location;lat;lon;timestamp;pressure;altitude;pressure_sealevel;temperature
18713;BMP280;9485;49.386;8.674;2023-09-07T00:04:40;100662.34;;;22.58
18713;BMP280;9485;49.386;8.674;2023-09-07T00:10:01;100658.16;;;22.67
18713;BMP280;9485;49.386;8.674;2023-09-07T00:15:24;100664.84;;;22.76
18713;BMP280;9485;49.386;8.674;2023-09-07T00:20:45;100659.28;;;22.86
18713;BMP280;9485;49.386;8.674;2023-09-07T00:26:06;100668.72;;;23.01
18713;BMP280;9485;49.386;8.674;2023-09-07T00:31:28;100671.03;;;23.18
18713;BMP280;9485;49.386;8.674;2023-09-07T00:36:49;100668.88;;;23.33
18713;BMP280;9485;49.386;8.674;2023-09-07T00:42:10;100661.97;;;23.36
18713;BMP280;9485;49.386;8.674;2023-09-07T00:47:34;100663.84;;;23.48
18713;BMP280;9485;49.386;8.674;2023-09-07T00:52:56;100660.13;;;23.78
18713;BMP280;9485;49.386;8.674;2023-09-07T00:58:17;100653.56;;;23.85
18713;BMP280;9485;49.386;8.674;2023-09-07T01:03:39;100659.28;;;24.00
18713;BMP280;9485;49.386;8.674;2023-09-07T01:09:10;100644.94;;;24.17
18713;BMP280;9485;49.386;8.674;2023-09-07T01:14:32;100643.72;;;24.27
18713;BMP280;9485;49.386;8.674;2023-09-07T01:19:57;100640.22;;;24.36
18713;BMP280;9485;49.386;8.674;2023-09-07T01:25:19;100626.91;;;24.40
18713;BMP280;9485;49.386;8.674;2023-09-07T01:30:41;100636.31;;;24.48
18713;BMP280;9485;49.386;8.674;2023-09-07T01:36:02;100636.66;;;24.52
18713;BMP280;9485;49.386;8.674;2023-09-07T01:41:24;100649.75;;;24.53
18713;BMP280;9485;49.386;8.674;2023-09-07T01:46:45;100646.66;;;24.51
18713;BMP280;9485;49.386;8.674;2023-09-07T01:52:07;100640.06;;;24.58
18713;BMP280;9485;49.386;8.674;2023-09-07T01:57:29;100640.06;;;24.58
18713;BMP280;9485;49.386;8.674;2023-09-07T02:02:50;100643.16;;;24.60
18713;BMP280;9485;49.386;8.674;2023-09-07T02:08:10;100640.06;;;24.58
18713;BMP280;9485;49.386;8.674;2023-09-07T02:13:33;100637.38;;;24.60
18713;BMP280;9485;49.386;8.674;2023-09-07T02:19:02;100636.03;;;24.61
18713;BMP280;9485;49.386;8.674;2023-09-07T02:24:23;100642.38;;;24.60
18713;BMP280;9485;49.386;8.674;2023-09-07T02:29:47;100635.84;;;24.59
18713;BMP280;9485;49.386;8.674;2023-09-07T02:35:09;100638.19;;;24.53
18713;BMP280;9485;49.386;8.674;2023-09-07T02:40:40;100635.91;;;24.52
18713;BMP280;9485;49.386;8.674;2023-09-07T02:46:03;100628.41;;;24.49
18713;BMP280;9485;49.386;8.674;2023-09-07T02:51:24;100638.81;;;24.44
18713;BMP280;9485;49.386;8.674;2023-09-07T02:56:46;100631.31;;;24.41
18713;BMP280;9485;49.386;8.674;2023-09-07T03:02:08;100626.72;;;24.38
18713;BMP280;9485;49.386;8.674;2023-09-07T03:07:33;100630.59;;;24.33
18713;BMP280;9485;49.386;8.674;2023-09-07T03:12:54;100633.53;;;24.26
18713;BMP280;9485;49.386;8.674;2023-09-07T03:18:16;100630.28;;;24.22
18713;BMP280;9485;49.386;8.674;2023-09-07T03:23:37;100637.47;;;24.14
18713;BMP280;9485;49.386;8.674;2023-09-07T03:29:04;100633.84;;;24.06
18713;BMP280;9485;49.386;8.674;2023-09-07T03:34:26;100638.13;;;23.97
18713;BMP280;9485;49.386;8.674;2023-09-07T03:39:48;100633.34;;;23.92
18713;BMP280;9485;49.386;8.674;2023-09-07T03:45:09;100643.56;;;23.86
18713;BMP280;9485;49.386;8.674;2023-09-07T03:50:31;100637.06;;;23.78
18713;BMP280;9485;49.386;8.674;2023-09-07T03:55:52;100639.59;;;23.66
18713;BMP280;9485;49.386;8.674;2023-09-07T04:01:14;100636.72;;;23.59
18713;BMP280;9485;49.386;8.674;2023-09-07T04:06:36;100645.59;;;23.53
18713;BMP280;9485;49.386;8.674;2023-09-07T04:11:57;100638.50;;;23.47
18713;BMP280;9485;49.386;8.674;2023-09-07T04:17:18;100634.31;;;23.41
18713;BMP280;9485;49.386;8.674;2023-09-07T04:22:41;100641.22;;;23.38
18713;BMP280;9485;49.386;8.674;2023-09-07T04:28:03;100642.19;;;23.33
18713;BMP280;9485;49.386;8.674;2023-09-07T04:33:23;100647.56;;;23.29
18713;BMP280;9485;49.386;8.674;2023-09-07T04:38:45;100656.78;;;23.27
18713;BMP280;9485;49.386;8.674;2023-09-07T04:44:06;100646.81;;;23.21
18713;BMP280;9485;49.386;8.674;2023-09-07T04:49:27;100659.88;;;23.22
18713;BMP280;9485;49.386;8.674;2023-09-07T04:54:49;100652.97;;;23.17
18713;BMP280;9485;49.386;8.674;2023-09-07T05:00:12;100657.22;;;23.16
18713;BMP280;9485;49.386;8.674;2023-09-07T05:05:33;100657.22;;;23.16
18713;BMP280;9485;49.386;8.674;2023-09-07T05:10:57;100659.50;;;23.18
18713;BMP280;9485;49.386;8.674;2023-09-07T05:16:18;100661.78;;;23.19
18713;BMP280;9485;49.386;8.674;2023-09-07T05:21:39;100666.59;;;23.24
18713;BMP280;9485;49.386;8.674;2023-09-07T05:27:02;100671.78;;;23.26
18713;BMP280;9485;49.386;8.674;2023-09-07T05:32:22;100674.28;;;23.29
18713;BMP280;9485;49.386;8.674;2023-09-07T05:37:43;100670.81;;;23.31
18713;BMP280;9485;49.386;8.674;2023-09-07T05:43:08;100695.75;;;23.36
18713;BMP280;9485;49.386;8.674;2023-09-07T05:48:31;100694.03;;;23.48
18713;BMP280;9485;49.386;8.674;2023-09-07T05:53:54;100690.34;;;23.62
18713;BMP280;9485;49.386;8.674;2023-09-07T05:59:16;100684.75;;;23.64
18713;BMP280;9485;49.386;8.674;2023-09-07T06:04:38;100700.88;;;23.67
18713;BMP280;9485;49.386;8.674;2023-09-07T06:10:00;100698.38;;;23.71
18713;BMP280;9485;49.386;8.674;2023-09-07T06:15:23;100684.38;;;23.60
18713;BMP280;9485;49.386;8.674;2023-09-07T06:20:45;100703.97;;;23.76
18713;BMP280;9485;49.386;8.674;2023-09-07T06:26:06;100698.66;;;26.43
18713;BMP280;9485;49.386;8.674;2023-09-07T06:31:28;100707.09;;;30.01
18713;BMP280;9485;49.386;8.674;2023-09-07T06:36:49;100717.81;;;31.53
18713;BMP280;9485;49.386;8.674;2023-09-07T06:42:15;100721.66;;;32.53
18713;BMP280;9485;49.386;8.674;2023-09-07T06:47:41;100730.72;;;34.58
18713;BMP280;9485;49.386;8.674;2023-09-07T06:53:03;100732.41;;;36.02
18713;BMP280;9485;49.386;8.674;2023-09-07T06:58:24;100737.75;;;37.48
18713;BMP280;9485;49.386;8.674;2023-09-07T07:03:46;100736.78;;;38.21
18713;BMP280;9485;49.386;8.674;2023-09-07T07:09:09;100744.69;;;37.95
18713;BMP280;9485;49.386;8.674;2023-09-07T07:14:30;100744.91;;;38.63
18713;BMP280;9485;49.386;8.674;2023-09-07T07:19:53;100742.50;;;39.75
18713;BMP280;9485;49.386;8.674;2023-09-07T07:25:13;100748.53;;;40.61
18713;BMP280;9485;49.386;8.674;2023-09-07T07:30:37;100744.44;;;40.44
18713;BMP280;9485;49.386;8.674;2023-09-07T07:36:01;100724.78;;;37.18
18713;BMP280;9485;49.386;8.674;2023-09-07T07:41:25;100734.59;;;34.34
18713;BMP280;9485;49.386;8.674;2023-09-07T07:46:50;100730.72;;;32.20
18713;BMP280;9485;49.386;8.674;2023-09-07T07:52:13;100721.72;;;31.12
18713;BMP280;9485;49.386;8.674;2023-09-07T07:57:35;100729.63;;;30.65
18713;BMP280;9485;49.386;8.674;2023-09-07T08:02:57;100728.75;;;30.74
18713;BMP280;9485;49.386;8.674;2023-09-07T08:08:19;100729.41;;;30.73
18713;BMP280;9485;49.386;8.674;2023-09-07T08:13:41;100734.69;;;30.65
18713;BMP280;9485;49.386;8.674;2023-09-07T08:19:06;100731.81;;;30.44
18713;BMP280;9485;49.386;8.674;2023-09-07T08:24:28;100727.06;;;30.28
18713;BMP280;9485;49.386;8.674;2023-09-07T08:29:51;100743.72;;;33.05
18713;BMP280;9485;49.386;8.674;2023-09-07T08:35:13;100733.16;;;36.02
18713;BMP280;9485;49.386;8.674;2023-09-07T08:40:38;100740.22;;;38.35
18713;BMP280;9485;49.386;8.674;2023-09-07T08:46:12;100753.72;;;40.05
18713;BMP280;9485;49.386;8.674;2023-09-07T08:51:34;100759.38;;;39.96
18713;BMP280;9485;49.386;8.674;2023-09-07T08:57:02;100756.53;;;40.83
18713;BMP280;9485;49.386;8.674;2023-09-07T09:02:23;100749.34;;;41.92
18713;BMP280;9485;49.386;8.674;2023-09-07T09:07:44;100758.56;;;42.47
18713;BMP280;9485;49.386;8.674;2023-09-07T09:13:06;100749.41;;;42.75
18713;BMP280;9485;49.386;8.674;2023-09-07T09:18:27;100747.03;;;43.15
18713;BMP280;9485;49.386;8.674;2023-09-07T09:23:51;100742.03;;;43.84
18713;BMP280;9485;49.386;8.674;2023-09-07T09:29:13;100747.00;;;44.31
18713;BMP280;9485;49.386;8.674;2023-09-07T09:34:36;100745.94;;;44.81
18713;BMP280;9485;49.386;8.674;2023-09-07T09:39:58;100731.56;;;45.69
18713;BMP280;9485;49.386;8.674;2023-09-07T09:45:22;100723.81;;;45.14
18713;BMP280;9485;49.386;8.674;2023-09-07T09:50:46;100721.97;;;44.60
18713;BMP280;9485;49.386;8.674;2023-09-07T09:56:08;100717.81;;;45.06
18713;BMP280;9485;49.386;8.674;2023-09-07T10:01:37;100705.63;;;44.67
18713;BMP280;9485;49.386;8.674;2023-09-07T10:07:01;100693.72;;;44.67
18713;BMP280;9485;49.386;8.674;2023-09-07T10:12:27;100689.03;;;44.44
18713;BMP280;9485;49.386;8.674;2023-09-07T10:17:50;100680.56;;;45.05
18713;BMP280;9485;49.386;8.674;2023-09-07T10:23:12;100682.69;;;44.95
18713;BMP280;9485;49.386;8.674;2023-09-07T10:28:34;100677.31;;;44.66
18713;BMP280;9485;49.386;8.674;2023-09-07T10:33:56;100671.78;;;44.24
18713;BMP280;9485;49.386;8.674;2023-09-07T10:39:17;100668.16;;;43.65
18713;BMP280;9485;49.386;8.674;2023-09-07T10:44:37;100661.09;;;41.54
18713;BMP280;9485;49.386;8.674;2023-09-07T10:49:59;100649.47;;;40.66
18713;BMP280;9485;49.386;8.674;2023-09-07T10:55:21;100646.72;;;40.15
18713;BMP280;9485;49.386;8.674;2023-09-07T11:00:42;100648.66;;;39.50
18713;BMP280;9485;49.386;8.674;2023-09-07T11:06:09;100634.44;;;38.70
18713;BMP280;9485;49.386;8.674;2023-09-07T11:11:32;100629.03;;;38.18
18713;BMP280;9485;49.386;8.674;2023-09-07T11:16:55;100626.16;;;38.43
18713;BMP280;9485;49.386;8.674;2023-09-07T11:22:17;100618.94;;;38.25
18713;BMP280;9485;49.386;8.674;2023-09-07T11:27:39;100612.72;;;37.94
18713;BMP280;9485;49.386;8.674;2023-09-07T11:33:03;100609.53;;;38.09
18713;BMP280;9485;49.386;8.674;2023-09-07T11:38:34;100618.47;;;38.79
18713;BMP280;9485;49.386;8.674;2023-09-07T11:43:55;100620.75;;;39.04
18713;BMP280;9485;49.386;8.674;2023-09-07T11:49:18;100619.47;;;39.36
18713;BMP280;9485;49.386;8.674;2023-09-07T11:54:43;100621.88;;;39.18
18713;BMP280;9485;49.386;8.674;2023-09-07T12:00:06;100617.97;;;39.37
18713;BMP280;9485;49.386;8.674;2023-09-07T12:05:33;100615.94;;;39.97
18713;BMP280;9485;49.386;8.674;2023-09-07T12:10:56;100621.88;;;40.26
18713;BMP280;9485;49.386;8.674;2023-09-07T12:16:17;100622.97;;;39.84
18713;BMP280;9485;49.386;8.674;2023-09-07T12:21:38;100606.34;;;39.43
18713;BMP280;9485;49.386;8.674;2023-09-07T12:27:00;100599.63;;;39.41
18713;BMP280;9485;49.386;8.674;2023-09-07T12:32:21;100590.63;;;39.62
18713;BMP280;9485;49.386;8.674;2023-09-07T12:37:43;100598.00;;;39.61
18713;BMP280;9485;49.386;8.674;2023-09-07T12:43:05;100595.22;;;39.95
18713;BMP280;9485;49.386;8.674;2023-09-07T12:48:26;100585.31;;;40.13
18713;BMP280;9485;49.386;8.674;2023-09-07T12:53:47;100591.63;;;40.00
18713;BMP280;9485;49.386;8.674;2023-09-07T12:59:09;100584.84;;;39.94
18713;BMP280;9485;49.386;8.674;2023-09-07T13:04:30;100577.25;;;40.16
18713;BMP280;9485;49.386;8.674;2023-09-07T13:09:50;100570.28;;;40.33
18713;BMP280;9485;49.386;8.674;2023-09-07T13:15:13;100569.16;;;40.18
18713;BMP280;9485;49.386;8.674;2023-09-07T13:20:35;100569.72;;;40.11
18713;BMP280;9485;49.386;8.674;2023-09-07T13:25:56;100567.00;;;40.21
18713;BMP280;9485;49.386;8.674;2023-09-07T13:31:18;100556.25;;;39.75
18713;BMP280;9485;49.386;8.674;2023-09-07T13:36:39;100548.31;;;39.54
18713;BMP280;9485;49.386;8.674;2023-09-07T13:42:00;100545.72;;;39.68
18713;BMP280;9485;49.386;8.674;2023-09-07T13:47:22;100535.34;;;39.96
18713;BMP280;9485;49.386;8.674;2023-09-07T13:52:43;100537.47;;;39.37
18713;BMP280;9485;49.386;8.674;2023-09-07T13:58:03;100539.25;;;39.20
18713;BMP280;9485;49.386;8.674;2023-09-07T14:03:25;100527.81;;;39.34
18713;BMP280;9485;49.386;8.674;2023-09-07T14:08:46;100527.88;;;39.36
18713;BMP280;9485;49.386;8.674;2023-09-07T14:14:07;100530.69;;;39.32
18713;BMP280;9485;49.386;8.674;2023-09-07T14:19:29;100521.59;;;39.22
18713;BMP280;9485;49.386;8.674;2023-09-07T14:24:50;100521.88;;;38.82
18713;BMP280;9485;49.386;8.674;2023-09-07T14:30:12;100522.94;;;38.67
18713;BMP280;9485;49.386;8.674;2023-09-07T14:35:34;100518.69;;;38.50
18713;BMP280;9485;49.386;8.674;2023-09-07T14:40:55;100512.84;;;38.52
18713;BMP280;9485;49.386;8.674;2023-09-07T14:46:16;100508.41;;;38.05
18713;BMP280;9485;49.386;8.674;2023-09-07T14:51:38;100515.97;;;37.46
18713;BMP280;9485;49.386;8.674;2023-09-07T14:56:59;100508.16;;;36.92
18713;BMP280;9485;49.386;8.674;2023-09-07T15:02:20;100508.34;;;36.40
18713;BMP280;9485;49.386;8.674;2023-09-07T15:07:42;100489.53;;;35.75
18713;BMP280;9485;49.386;8.674;2023-09-07T15:13:05;100486.22;;;35.32
18713;BMP280;9485;49.386;8.674;2023-09-07T15:18:26;100479.50;;;34.80
18713;BMP280;9485;49.386;8.674;2023-09-07T15:23:48;100470.34;;;34.41
18713;BMP280;9485;49.386;8.674;2023-09-07T15:29:09;100483.50;;;34.25
18713;BMP280;9485;49.386;8.674;2023-09-07T15:34:29;100469.91;;;33.87
18713;BMP280;9485;49.386;8.674;2023-09-07T15:39:51;100484.81;;;33.62
18713;BMP280;9485;49.386;8.674;2023-09-07T15:45:13;100479.44;;;33.14
18713;BMP280;9485;49.386;8.674;2023-09-07T15:50:33;100484.41;;;32.98
18713;BMP280;9485;49.386;8.674;2023-09-07T15:55:55;100488.03;;;32.70
18713;BMP280;9485;49.386;8.674;2023-09-07T16:01:16;100483.34;;;32.38
18713;BMP280;9485;49.386;8.674;2023-09-07T16:06:37;100479.72;;;32.13
18713;BMP280;9485;49.386;8.674;2023-09-07T16:11:59;100478.81;;;31.97
18713;BMP280;9485;49.386;8.674;2023-09-07T16:17:20;100482.63;;;31.75
18713;BMP280;9485;49.386;8.674;2023-09-07T16:22:40;100480.22;;;31.58
18713;BMP280;9485;49.386;8.674;2023-09-07T16:28:03;100487.88;;;31.40
18713;BMP280;9485;49.386;8.674;2023-09-07T16:33:25;100484.38;;;31.30
18713;BMP280;9485;49.386;8.674;2023-09-07T16:38:46;100478.22;;;31.13
18713;BMP280;9485;49.386;8.674;2023-09-07T16:44:08;100484.75;;;31.00
18713;BMP280;9485;49.386;8.674;2023-09-07T16:49:28;100495.41;;;30.84
18713;BMP280;9485;49.386;8.674;2023-09-07T16:54:49;100494.53;;;30.70
18713;BMP280;9485;49.386;8.674;2023-09-07T17:00:13;100497.22;;;30.54
18713;BMP280;9485;49.386;8.674;2023-09-07T17:05:34;100503.25;;;30.36
18713;BMP280;9485;49.386;8.674;2023-09-07T17:10:54;100507.06;;;30.15
18713;BMP280;9485;49.386;8.674;2023-09-07T17:16:16;100496.25;;;29.95
18713;BMP280;9485;49.386;8.674;2023-09-07T17:21:37;100513.78;;;29.74
18713;BMP280;9485;49.386;8.674;2023-09-07T17:27:01;100501.56;;;29.55
18713;BMP280;9485;49.386;8.674;2023-09-07T17:32:24;100505.56;;;29.38
18713;BMP280;9485;49.386;8.674;2023-09-07T17:37:45;100515.31;;;29.22
18713;BMP280;9485;49.386;8.674;2023-09-07T17:43:05;100514.44;;;28.98
18713;BMP280;9485;49.386;8.674;2023-09-07T17:48:27;100516.22;;;28.83
18713;BMP280;9485;49.386;8.674;2023-09-07T17:53:48;100523.03;;;28.66
18713;BMP280;9485;49.386;8.674;2023-09-07T17:59:09;100525.44;;;28.49
18713;BMP280;9485;49.386;8.674;2023-09-07T18:04:32;100534.25;;;28.30
18713;BMP280;9485;49.386;8.674;2023-09-07T18:09:52;100539.03;;;28.07
18713;BMP280;9485;49.386;8.674;2023-09-07T18:15:13;100532.69;;;27.89
18713;BMP280;9485;49.386;8.674;2023-09-07T18:20:35;100543.25;;;27.75
18713;BMP280;9485;49.386;8.674;2023-09-07T18:25:56;100547.81;;;27.59
18713;BMP280;9485;49.386;8.674;2023-09-07T18:31:17;100550.13;;;27.42
18713;BMP280;9485;49.386;8.674;2023-09-07T18:36:39;100553.94;;;27.26
18713;BMP280;9485;49.386;8.674;2023-09-07T18:42:00;100549.34;;;27.04
18713;BMP280;9485;49.386;8.674;2023-09-07T18:47:21;100545.78;;;26.86
18713;BMP280;9485;49.386;8.674;2023-09-07T18:52:43;100551.22;;;26.63
18713;BMP280;9485;49.386;8.674;2023-09-07T18:58:04;100547.06;;;26.48
18713;BMP280;9485;49.386;8.674;2023-09-07T19:03:24;100550.19;;;26.33
18713;BMP280;9485;49.386;8.674;2023-09-07T19:08:46;100549.78;;;26.19
18713;BMP280;9485;49.386;8.674;2023-09-07T19:14:07;100561.31;;;26.10
18713;BMP280;9485;49.386;8.674;2023-09-07T19:19:28;100548.56;;;25.86
18713;BMP280;9485;49.386;8.674;2023-09-07T19:24:52;100563.13;;;25.79
18713;BMP280;9485;49.386;8.674;2023-09-07T19:30:14;100559.56;;;25.71
18713;BMP280;9485;49.386;8.674;2023-09-07T19:35:34;100550.63;;;25.60
18713;BMP280;9485;49.386;8.674;2023-09-07T19:40:57;100560.94;;;25.53
18713;BMP280;9485;49.386;8.674;2023-09-07T19:46:17;100559.16;;;25.41
18713;BMP280;9485;49.386;8.674;2023-09-07T19:51:39;100565.03;;;25.33
18713;BMP280;9485;49.386;8.674;2023-09-07T19:57:03;100569.44;;;25.17
18713;BMP280;9485;49.386;8.674;2023-09-07T20:02:23;100569.16;;;25.06
18713;BMP280;9485;49.386;8.674;2023-09-07T20:07:44;100573.50;;;24.98
18713;BMP280;9485;49.386;8.674;2023-09-07T20:13:10;100559.88;;;24.91
18713;BMP280;9485;49.386;8.674;2023-09-07T20:18:30;100564.63;;;24.79
18713;BMP280;9485;49.386;8.674;2023-09-07T20:23:51;100558.75;;;24.69
18713;BMP280;9485;49.386;8.674;2023-09-07T20:29:13;100549.63;;;24.56
18713;BMP280;9485;49.386;8.674;2023-09-07T20:34:36;100563.41;;;24.40
18713;BMP280;9485;49.386;8.674;2023-09-07T20:39:57;100561.75;;;24.30
18713;BMP280;9485;49.386;8.674;2023-09-07T20:45:20;100566.03;;;24.22
18713;BMP280;9485;49.386;8.674;2023-09-07T20:50:41;100560.50;;;24.16
18713;BMP280;9485;49.386;8.674;2023-09-07T20:56:01;100548.13;;;23.99
18713;BMP280;9485;49.386;8.674;2023-09-07T21:01:23;100559.47;;;23.97
18713;BMP280;9485;49.386;8.674;2023-09-07T21:06:44;100556.59;;;23.97
18713;BMP280;9485;49.386;8.674;2023-09-07T21:12:06;100551.75;;;24.07
18713;BMP280;9485;49.386;8.674;2023-09-07T21:17:28;100563.44;;;24.09
18713;BMP280;9485;49.386;8.674;2023-09-07T21:22:49;100556.13;;;24.08
18713;BMP280;9485;49.386;8.674;2023-09-07T21:28:10;100564.84;;;24.00
18713;BMP280;9485;49.386;8.674;2023-09-07T21:33:32;100554.34;;;23.88
18713;BMP280;9485;49.386;8.674;2023-09-07T21:38:53;100560.56;;;23.77
18713;BMP280;9485;49.386;8.674;2023-09-07T21:44:13;100569.03;;;23.67
18713;BMP280;9485;49.386;8.674;2023-09-07T21:49:37;100553.91;;;23.59
18713;BMP280;9485;49.386;8.674;2023-09-07T21:54:58;100541.53;;;23.74
18713;BMP280;9485;49.386;8.674;2023-09-07T22:00:19;100543.63;;;23.81
18713;BMP280;9485;49.386;8.674;2023-09-07T22:05:42;100546.13;;;24.09
18713;BMP280;9485;49.386;8.674;2023-09-07T22:11:03;100534.78;;;24.35
18713;BMP280;9485;49.386;8.674;2023-09-07T22:16:24;100541.91;;;24.58
18713;BMP280;9485;49.386;8.674;2023-09-07T22:21:46;100545.53;;;24.83
18713;BMP280;9485;49.386;8.674;2023-09-07T22:27:07;100549.34;;;25.02
18713;BMP280;9485;49.386;8.674;2023-09-07T22:32:30;100532.06;;;25.19
18713;BMP280;9485;49.386;8.674;2023-09-07T22:37:53;100530.19;;;25.31
18713;BMP280;9485;49.386;8.674;2023-09-07T22:43:14;100525.06;;;25.39
18713;BMP280;9485;49.386;8.674;2023-09-07T22:48:34;100525.31;;;25.51
18713;BMP280;9485;49.386;8.674;2023-09-07T22:53:56;100523.69;;;25.57
18713;BMP280;9485;49.386;8.674;2023-09-07T22:59:18;100519.94;;;25.64
18713;BMP280;9485;49.386;8.674;2023-09-07T23:04:39;100530.91;;;25.66
18713;BMP280;9485;49.386;8.674;2023-09-07T23:10:01;100530.22;;;25.58
18713;BMP280;9485;49.386;8.674;2023-09-07T23:15:24;100536.88;;;25.51
18713;BMP280;9485;49.386;8.674;2023-09-07T23:20:45;100536.38;;;25.45
18713;BMP280;9485;49.386;8.674;2023-09-07T23:26:07;100540.97;;;25.31
18713;BMP280;9485;49.386;8.674;2023-09-07T23:31:28;100547.06;;;25.01
18713;BMP280;9485;49.386;8.674;2023-09-07T23:36:51;100541.56;;;24.54
18713;BMP280;9485;49.386;8.674;2023-09-07T23:42:13;100543.91;;;24.24
18713;BMP280;9485;49.386;8.674;2023-09-07T23:47:34;100546.19;;;24.01
18713;BMP280;9485;49.386;8.674;2023-09-07T23:52:54;100543.25;;;23.77
18713;BMP280;9485;49.386;8.674;2023-09-07T23:58:16;100555.44;;;23.53
